Dailey, West Virginia
Current Conditions -  °F | °C
As of 8:18 PM on Monday 26 Jan 2015 (Local Time) from KEKN Reporting Station
Unknown Precip Unknown Precip  
Wind Chill: 15°   Ceiling: 1300
Heat Index: 25°   Visibility: 9mi
Dew Point: 21°   Wind: 10mph
Humidity: 85%   Direction: 290°WNW
Pressure: 29.79"   Gusts: NA
Location:  38.8°N, 79.9°W
Report Text: KEKN 270118Z AUTO 29009KT 9SM UP OVC013 M04/M06 A2979 RMK AO2 UPB17SNE14 P0000 T10391061 TSNO
Loading
Personal Weather Stations






























Interactive Weather Map New forecast layout! Learn more

10-Day Weather Forecast

Advertisements
Track Severe Weather on mobile